Time;durP1;ratioP1;P1;durP2;ratioP2;P2;SDS_P1;SDS_P2;PMS_P1;PMS_P2;Temp;Humidity;BMP_temperature;BMP_pressure;BME280_temperature;BME280_humidity;BME280_pressure;Samples;Min_cycle;Max_cycle;Signal;HPM_P1;HPM_P2
2021/08/22 00:02:21;;;;;;;;;;;;;;;21.19;71.79;101151.47;5094776;28;2044;-48
2021/08/22 00:04:46;;;;;;;;;;;;;;;21.21;71.80;101152.19;5095137;28;1192;-49
2021/08/22 00:07:11;;;;;;;;;;;;;;;21.18;71.51;101149.78;5095240;28;1008;-48
2021/08/22 00:09:36;;;;;;;;;;;;;;;21.22;71.35;101147.63;5095430;28;842;-46
2021/08/22 00:12:01;;;;;;;;;;;;;;;21.20;71.40;101136.94;5095287;28;1959;-45
2021/08/22 00:14:26;;;;;;;;;;;;;;;21.20;71.82;101141.53;5095576;28;1953;-45
2021/08/22 00:16:51;;;;;;;;;;;;;;;21.07;71.67;101136.50;5077085;28;839;-46
2021/08/22 00:19:16;;;;;;;;;;;;;;;21.14;71.66;101146.53;5094887;28;1895;-43
2021/08/22 00:21:41;;;;;;;;;;;;;;;21.17;71.83;101144.50;5095042;28;1603;-43
2021/08/22 00:24:06;;;;;;;;;;;;;;;21.15;71.84;101142.81;5076534;28;831;-47
2021/08/22 00:26:31;;;;;;;;;;;;;;;21.15;71.87;101134.69;5094645;28;1887;-44
2021/08/22 00:28:57;;;;;;;;;;;;;;;21.16;71.68;101138.25;5094797;28;811;-42
2021/08/22 00:31:22;;;;;;;;;;;;;;;21.18;71.11;101133.50;5095124;28;1646;-45
2021/08/22 00:33:47;;;;;;;;;;;;;;;21.17;71.61;101125.53;5094842;28;1009;-42
2021/08/22 00:36:12;;;;;;;;;;;;;;;21.15;71.34;101121.13;5094837;28;1953;-42
2021/08/22 00:38:37;;;;;;;;;;;;;;;21.18;71.58;101128.09;5094476;28;870;-43
2021/08/22 00:41:02;;;;;;;;;;;;;;;21.15;71.48;101120.28;5094363;28;1878;-46
2021/08/22 00:43:27;;;;;;;;;;;;;;;21.15;71.51;101123.84;5094598;28;907;-43
2021/08/22 00:45:52;;;;;;;;;;;;;;;21.15;71.39;101123.84;5094703;28;1036;-42
2021/08/22 00:48:17;;;;;;;;;;;;;;;21.14;71.26;101122.13;5094489;28;1908;-42
2021/08/22 00:50:42;;;;;;;;;;;;;;;21.14;71.79;101122.13;5094927;28;1787;-45
2021/08/22 00:53:07;;;;;;;;;;;;;;;21.15;71.65;101115.72;5094614;28;1009;-42
2021/08/22 00:55:33;;;;;;;;;;;;;;;21.15;72.09;101118.41;5094611;28;1976;-43
2021/08/22 00:57:58;;;;;;;;;;;;;;;21.14;71.59;101114.00;5094876;28;1017;-42
2021/08/22 01:00:23;;;;;;;;;;;;;;;21.14;71.88;101110.44;5095199;28;1515;-45
2021/08/22 01:02:48;;;;;;;;;;;;;;;21.17;71.78;101114.69;5094688;28;949;-47
2021/08/22 01:05:13;;;;;;;;;;;;;;;21.13;71.19;101106.06;5094918;28;862;-48
2021/08/22 01:07:38;;;;;;;;;;;;;;;21.14;71.82;101105.88;5095008;28;1028;-47
2021/08/22 01:10:03;;;;;;;;;;;;;;;21.14;71.49;101103.16;5078904;28;2062;-47
2021/08/22 01:12:28;;;;;;;;;;;;;;;21.14;71.96;101102.31;5094750;28;851;-48
2021/08/22 01:14:53;;;;;;;;;;;;;;;21.14;71.89;101095.03;5094566;28;1901;-45
2021/08/22 01:17:18;;;;;;;;;;;;;;;21.13;71.67;101098.78;5094682;28;932;-48
2021/08/22 01:19:43;;;;;;;;;;;;;;;21.11;71.45;101092.69;5097186;28;837;-44
2021/08/22 01:22:09;;;;;;;;;;;;;;;21.12;71.63;101091.66;5098099;28;1973;-45
2021/08/22 01:24:34;;;;;;;;;;;;;;;21.12;71.87;101096.25;5098121;28;869;-46
2021/08/22 01:26:59;;;;;;;;;;;;;;;21.11;71.43;101095.38;5098180;28;988;-42
2021/08/22 01:29:24;;;;;;;;;;;;;;;21.13;71.48;101093.38;5097921;28;1001;-43
2021/08/22 01:31:49;;;;;;;;;;;;;;;21.11;71.36;101100.81;5098217;28;1021;-44
2021/08/22 01:34:15;;;;;;;;;;;;;;;21.12;71.54;101101.66;5097381;28;1927;-44
2021/08/22 01:36:40;;;;;;;;;;;;;;;21.10;71.59;101093.69;5097747;28;1889;-48
2021/08/22 01:39:05;;;;;;;;;;;;;;;21.10;72.12;101088.25;5098214;28;859;-45
2021/08/22 01:41:30;;;;;;;;;;;;;;;21.12;71.65;101093.53;5098165;28;1629;-44
2021/08/22 01:43:55;;;;;;;;;;;;;;;21.09;71.59;101086.56;5097577;28;901;-43
2021/08/22 01:46:20;;;;;;;;;;;;;;;21.11;71.61;101089.97;5097711;28;842;-45
2021/08/22 01:48:46;;;;;;;;;;;;;;;21.09;71.38;101083.00;5097385;28;1924;-45
2021/08/22 01:51:11;;;;;;;;;;;;;;;21.11;71.74;101095.38;5097669;28;969;-44
2021/08/22 01:53:36;;;;;;;;;;;;;;;21.11;71.55;101087.25;5097796;28;1120;-43
2021/08/22 01:56:01;;;;;;;;;;;;;;;21.09;71.91;101085.72;5097670;28;1906;-42
2021/08/22 01:58:26;;;;;;;;;;;;;;;21.06;71.93;101081.47;5097262;28;1028;-43
2021/08/22 02:00:51;;;;;;;;;;;;;;;21.07;71.43;101085.88;5097473;28;1924;-42
2021/08/22 02:03:17;;;;;;;;;;;;;;;21.09;71.51;101086.56;5097155;28;865;-42
2021/08/22 02:05:42;;;;;;;;;;;;;;;21.06;71.80;101084.16;5097893;28;785;-43
2021/08/22 02:08:07;;;;;;;;;;;;;;;21.09;71.52;101086.56;5097221;28;1001;-43
2021/08/22 02:10:32;;;;;;;;;;;;;;;21.09;71.75;101083.84;5097375;28;1799;-44
2021/08/22 02:12:57;;;;;;;;;;;;;;;21.07;71.77;101083.16;5097489;28;876;-42
2021/08/22 02:15:22;;;;;;;;;;;;;;;21.04;71.56;101080.78;5096936;28;1949;-42
2021/08/22 02:17:47;;;;;;;;;;;;;;;21.01;72.30;101080.25;5097065;28;1961;-42
2021/08/22 02:20:13;;;;;;;;;;;;;;;21.04;72.18;101083.47;5097306;28;1604;-43
2021/08/22 02:22:41;;;;;;;;;;;;;;;21.07;71.96;101068.75;5096877;28;846;-47
2021/08/22 02:25:06;;;;;;;;;;;;;;;21.07;71.72;101072.31;5097134;28;936;-43
2021/08/22 02:27:31;;;;;;;;;;;;;;;21.08;71.46;101073.19;5096924;28;815;-44
2021/08/22 02:29:57;;;;;;;;;;;;;;;20.96;72.18;101071.75;5096803;28;1756;-42
2021/08/22 02:32:22;;;;;;;;;;;;;;;20.97;71.84;101074.28;5096914;28;839;-43
2021/08/22 02:34:47;;;;;;;;;;;;;;;20.84;72.45;101068.47;5096470;28;1969;-43
2021/08/22 02:37:12;;;;;;;;;;;;;;;20.85;72.60;101062.03;5096512;28;972;-43
2021/08/22 02:39:37;;;;;;;;;;;;;;;20.61;72.98;101070.84;5096602;28;1896;-44
2021/08/22 02:42:02;;;;;;;;;;;;;;;20.70;73.00;101066.34;5096595;28;1629;-43
2021/08/22 02:44:27;;;;;;;;;;;;;;;20.80;72.61;101067.06;5096260;28;1858;-43
2021/08/22 02:46:52;;;;;;;;;;;;;;;20.96;71.98;101069.06;5096385;28;946;-43
2021/08/22 02:49:17;;;;;;;;;;;;;;;20.63;72.61;101068.00;5096694;28;866;-42
2021/08/22 02:51:42;;;;;;;;;;;;;;;20.59;72.88;101064.78;5096354;28;1021;-42
2021/08/22 02:54:07;;;;;;;;;;;;;;;20.66;72.20;101065.81;5096365;28;1138;-45
2021/08/22 02:56:33;;;;;;;;;;;;;;;20.69;72.57;101075.50;5096487;28;1909;-46
2021/08/22 02:58:58;;;;;;;;;;;;;;;20.62;72.70;101072.56;5096009;28;2011;-45
2021/08/22 03:01:23;;;;;;;;;;;;;;;20.55;72.53;101067.94;5096570;28;1873;-44
2021/08/22 03:03:48;;;;;;;;;;;;;;;20.72;71.95;101075.16;5096520;28;1687;-44
2021/08/22 03:06:13;;;;;;;;;;;;;;;20.62;72.72;101061.72;5096225;28;943;-47
2021/08/22 03:08:38;;;;;;;;;;;;;;;20.53;73.10;101064.56;5096333;28;1009;-48
2021/08/22 03:11:03;;;;;;;;;;;;;;;20.41;73.23;101064.81;5095850;28;974;-46
2021/08/22 03:13:28;;;;;;;;;;;;;;;20.33;73.23;101064.72;5096257;28;1893;-43
2021/08/22 03:15:53;;;;;;;;;;;;;;;20.30;73.98;101062.31;5095807;28;1894;-43
2021/08/22 03:18:18;;;;;;;;;;;;;;;20.49;72.95;101055.88;5096341;28;914;-44
2021/08/22 03:20:43;;;;;;;;;;;;;;;20.46;73.00;101072.44;5095587;28;866;-45
2021/08/22 03:23:08;;;;;;;;;;;;;;;20.47;73.05;101051.63;5095543;28;920;-45
2021/08/22 03:25:33;;;;;;;;;;;;;;;20.27;73.43;101054.50;5095955;28;1056;-45
2021/08/22 03:27:58;;;;;;;;;;;;;;;20.37;73.80;101057.16;5095804;28;1988;-42
2021/08/22 03:30:24;;;;;;;;;;;;;;;20.61;72.83;101053.75;5095501;28;1640;-45
2021/08/22 03:32:49;;;;;;;;;;;;;;;20.65;72.20;101060.56;5095936;28;1001;-45
2021/08/22 03:35:14;;;;;;;;;;;;;;;20.63;72.15;101059.88;5095685;28;1943;-48
2021/08/22 03:37:39;;;;;;;;;;;;;;;20.63;71.93;101051.75;5095310;28;848;-45
2021/08/22 03:40:04;;;;;;;;;;;;;;;20.61;71.89;101057.31;5095898;28;882;-44
2021/08/22 03:42:29;;;;;;;;;;;;;;;20.51;72.68;101053.03;5094818;28;1607;-46
2021/08/22 03:44:54;;;;;;;;;;;;;;;20.47;73.25;101054.34;5096096;28;1645;-42
2021/08/22 03:47:19;;;;;;;;;;;;;;;20.40;73.05;101060.41;5095934;28;965;-45
2021/08/22 03:49:44;;;;;;;;;;;;;;;20.55;72.88;101057.13;5095254;28;878;-48
2021/08/22 03:52:09;;;;;;;;;;;;;;;20.49;72.29;101055.03;5095707;28;957;-48
2021/08/22 03:54:34;;;;;;;;;;;;;;;20.37;72.69;101062.56;5095547;28;1984;-46
2021/08/22 03:56:59;;;;;;;;;;;;;;;20.31;73.30;101058.59;5095198;28;1946;-43
2021/08/22 03:59:24;;;;;;;;;;;;;;;20.21;73.03;101057.00;5095604;28;803;-43
2021/08/22 04:01:50;;;;;;;;;;;;;;;20.17;73.25;101064.59;5095314;28;993;-43
2021/08/22 04:04:15;;;;;;;;;;;;;;;20.23;72.95;101063.97;5095696;28;1755;-46
2021/08/22 04:06:47;;;;;;;;;;;;;;;20.17;74.02;101067.28;5095319;28;838;-43
2021/08/22 04:09:12;;;;;;;;;;;;;;;20.26;73.26;101066.34;5095550;28;1950;-43
2021/08/22 04:11:38;;;;;;;;;;;;;;;20.22;73.62;101073.09;5095092;28;1946;-46
2021/08/22 04:14:03;;;;;;;;;;;;;;;20.14;74.24;101075.72;5094837;28;1662;-45
2021/08/22 04:16:28;;;;;;;;;;;;;;;20.14;73.24;101075.72;5094848;28;1979;-48
2021/08/22 04:18:53;;;;;;;;;;;;;;;20.17;73.21;101083.53;5095394;28;1076;-43
2021/08/22 04:21:18;;;;;;;;;;;;;;;20.21;72.91;101068.69;5095243;28;950;-43
2021/08/22 04:23:43;;;;;;;;;;;;;;;20.16;73.98;101076.41;5094968;28;1889;-45
2021/08/22 04:26:08;;;;;;;;;;;;;;;20.13;73.94;101070.44;5094668;28;1076;-45
2021/08/22 04:28:33;;;;;;;;;;;;;;;20.05;73.79;101068.53;5095367;28;930;-43
2021/08/22 04:30:58;;;;;;;;;;;;;;;20.14;73.67;101062.19;5095021;28;920;-44
2021/08/22 04:33:23;;;;;;;;;;;;;;;20.12;73.65;101077.72;5095343;28;2058;-47
2021/08/22 04:35:49;;;;;;;;;;;;;;;20.09;73.28;101078.88;5094986;28;1898;-44
2021/08/22 04:38:14;;;;;;;;;;;;;;;19.97;73.20;101076.56;5094614;28;1945;-47
2021/08/22 04:40:39;;;;;;;;;;;;;;;20.02;73.88;101080.53;5094818;28;2020;-45
2021/08/22 04:43:05;;;;;;;;;;;;;;;20.07;73.20;101075.47;5095158;28;1752;-43
2021/08/22 04:45:30;;;;;;;;;;;;;;;20.06;73.93;101081.06;5094973;28;795;-46
2021/08/22 04:47:55;;;;;;;;;;;;;;;19.97;72.92;101084.69;5094847;28;795;-46
2021/08/22 04:50:20;;;;;;;;;;;;;;;20.09;73.15;101080.72;5094680;28;850;-45
2021/08/22 04:52:45;;;;;;;;;;;;;;;20.13;72.86;101086.69;5094209;28;1827;-45
2021/08/22 04:55:11;;;;;;;;;;;;;;;20.19;72.85;101088.78;5097820;28;1997;-45
2021/08/22 04:57:36;;;;;;;;;;;;;;;20.38;72.37;101085.94;5098090;28;859;-45
2021/08/22 05:00:01;;;;;;;;;;;;;;;20.27;72.72;101083.41;5098019;28;2138;-42
2021/08/22 05:02:26;;;;;;;;;;;;;;;20.29;72.12;101084.13;5098783;28;1738;-42
2021/08/22 05:04:51;;;;;;;;;;;;;;;20.45;71.93;101077.00;5098174;28;961;-44
2021/08/22 05:07:16;;;;;;;;;;;;;;;20.55;71.43;101086.91;5097981;28;1862;-44
2021/08/22 05:09:41;;;;;;;;;;;;;;;20.54;71.00;101085.19;5098350;28;945;-46
2021/08/22 05:12:06;;;;;;;;;;;;;;;20.44;71.73;101091.56;5098404;28;1615;-44
2021/08/22 05:14:32;;;;;;;;;;;;;;;20.40;71.68;101087.47;5098101;28;1893;-44
2021/08/22 05:16:57;;;;;;;;;;;;;;;20.54;71.44;101091.47;5098165;28;842;-44
2021/08/22 05:19:22;;;;;;;;;;;;;;;20.56;71.33;101086.75;5098255;28;1009;-44
2021/08/22 05:21:47;;;;;;;;;;;;;;;20.57;71.48;101087.59;5079859;28;1882;-43
2021/08/22 05:24:13;;;;;;;;;;;;;;;20.58;71.53;101083.88;5098205;28;1164;-44
2021/08/22 05:26:38;;;;;;;;;;;;;;;20.36;71.99;101088.78;5098089;28;810;-44
2021/08/22 05:29:03;;;;;;;;;;;;;;;20.43;71.80;101095.25;5097824;28;1878;-43
2021/08/22 05:31:28;;;;;;;;;;;;;;;20.57;71.09;101085.75;5097919;28;1585;-44
2021/08/22 05:33:53;;;;;;;;;;;;;;;20.58;70.92;101087.44;5097671;28;934;-43
2021/08/22 05:36:18;;;;;;;;;;;;;;;20.47;71.41;101084.97;5097679;28;2012;-41
2021/08/22 05:38:43;;;;;;;;;;;;;;;20.46;71.48;101083.28;5097706;28;968;-42
2021/08/22 05:41:08;;;;;;;;;;;;;;;20.43;72.33;101092.56;5097647;28;1625;-46
2021/08/22 05:43:33;;;;;;;;;;;;;;;20.31;72.59;101091.09;5097758;28;1178;-46
2021/08/22 05:45:58;;;;;;;;;;;;;;;20.39;71.75;101099.31;5097635;28;997;-45
2021/08/22 05:48:23;;;;;;;;;;;;;;;20.39;71.82;101099.31;5097244;28;914;-42
2021/08/22 05:50:48;;;;;;;;;;;;;;;20.41;71.64;101100.00;5097312;28;1951;-42
2021/08/22 05:53:13;;;;;;;;;;;;;;;20.28;72.84;101087.81;5097572;28;1001;-42
2021/08/22 05:55:39;;;;;;;;;;;;;;;20.26;72.35;101096.09;5096788;28;2040;-48
2021/08/22 05:58:04;;;;;;;;;;;;;;;20.32;72.34;101091.94;5097160;28;1016;-42
2021/08/22 06:00:29;;;;;;;;;;;;;;;20.18;72.92;101097.91;5097103;28;857;-47
2021/08/22 06:02:54;;;;;;;;;;;;;;;20.02;73.57;101096.75;5097014;28;1892;-43
2021/08/22 06:05:19;;;;;;;;;;;;;;;20.07;73.39;101093.56;5096616;28;985;-47
2021/08/22 06:07:44;;;;;;;;;;;;;;;20.10;73.68;101098.66;5096768;28;1170;-48
2021/08/22 06:10:09;;;;;;;;;;;;;;;19.95;73.69;101100.22;5096363;28;1707;-45
2021/08/22 06:12:34;;;;;;;;;;;;;;;19.91;74.55;101098.81;5096462;28;1481;-43
2021/08/22 06:14:59;;;;;;;;;;;;;;;20.01;73.34;101097.75;5096510;28;1897;-43
2021/08/22 06:17:24;;;;;;;;;;;;;;;20.14;73.10;101100.06;5077641;28;1653;-42
2021/08/22 06:19:49;;;;;;;;;;;;;;;20.11;73.47;101105.78;5095862;28;1697;-42
2021/08/22 06:22:14;;;;;;;;;;;;;;;20.05;73.48;101111.84;5095617;28;1606;-47
2021/08/22 06:24:40;;;;;;;;;;;;;;;20.05;74.15;101109.13;5096109;28;1566;-42
2021/08/22 06:27:05;;;;;;;;;;;;;;;19.90;73.89;101107.94;5096161;28;1676;-44
2021/08/22 06:29:30;;;;;;;;;;;;;;;19.92;74.00;101109.47;5096188;28;1656;-43
2021/08/22 06:31:55;;;;;;;;;;;;;;;20.00;73.84;101108.72;5095743;28;1785;-47
2021/08/22 06:34:20;;;;;;;;;;;;;;;19.98;73.87;101105.31;5084807;28;2569;-47
2021/08/22 06:36:48;;;;;;;;;;;;;;;20.15;73.20;101107.19;5084653;28;1893;-43
2021/08/22 06:39:13;;;;;;;;;;;;;;;19.87;74.89;101109.13;5081537;28;1617;-46
2021/08/22 06:41:38;;;;;;;;;;;;;;;19.94;74.55;101109.34;5084475;28;1603;-45
2021/08/22 06:44:03;;;;;;;;;;;;;;;19.90;74.98;101107.94;5084505;28;1774;-45
2021/08/22 06:46:29;;;;;;;;;;;;;;;19.82;75.30;101110.56;5086926;28;1548;-45
2021/08/22 06:48:54;;;;;;;;;;;;;;;19.91;74.14;101120.47;5089610;28;1816;-43
2021/08/22 06:51:19;;;;;;;;;;;;;;;20.08;73.76;101117.75;5085260;28;2234;-45
2021/08/22 06:53:44;;;;;;;;;;;;;;;19.91;74.85;101121.31;5087871;28;1747;-48
2021/08/22 06:56:09;;;;;;;;;;;;;;;19.91;74.50;101117.75;5087558;28;1967;-46
2021/08/22 06:58:34;;;;;;;;;;;;;;;20.02;73.84;101117.53;5082834;28;1747;-42
2021/08/22 07:00:59;;;;;;;;;;;;;;;19.82;74.30;101124.09;5083130;28;2377;-46
2021/08/22 07:03:24;;;;;;;;;;;;;;;19.68;75.60;101115.50;5084488;28;1605;-47
2021/08/22 07:05:49;;;;;;;;;;;;;;;19.74;74.93;101122.13;5080358;28;1701;-46
2021/08/22 07:08:14;;;;;;;;;;;;;;;19.81;74.69;101117.84;5079314;28;1856;-48
2021/08/22 07:10:39;;;;;;;;;;;;;;;19.81;74.62;101125.09;5087449;28;1874;-45
2021/08/22 07:13:04;;;;;;;;;;;;;;;19.76;74.58;101128.25;5077271;28;1745;-44
2021/08/22 07:15:29;;;;;;;;;;;;;;;19.76;75.00;101123.69;5078723;28;1901;-43
2021/08/22 07:17:55;;;;;;;;;;;;;;;19.74;74.62;101130.25;5084116;28;1595;-44
2021/08/22 07:20:20;;;;;;;;;;;;;;;19.91;74.24;101128.56;5087631;28;1874;-45
2021/08/22 07:22:45;;;;;;;;;;;;;;;19.97;73.50;101127.97;5085632;28;1782;-48
2021/08/22 07:25:10;;;;;;;;;;;;;;;19.90;74.53;101126.88;5066958;28;1792;-44
2021/08/22 07:27:35;;;;;;;;;;;;;;;19.92;73.59;101128.41;5077948;28;1905;-43
2021/08/22 07:30:00;;;;;;;;;;;;;;;19.88;74.47;101124.34;5080669;28;1601;-44
2021/08/22 07:32:25;;;;;;;;;;;;;;;19.76;74.11;101134.50;5073944;28;1783;-46
2021/08/22 07:34:51;;;;;;;;;;;;;;;19.68;75.01;101137.13;5086332;28;1951;-44
2021/08/22 07:37:16;;;;;;;;;;;;;;;19.71;75.48;101139.50;5080374;28;1773;-45
2021/08/22 07:39:41;;;;;;;;;;;;;;;19.68;75.29;101133.59;5080678;28;1589;-43
2021/08/22 07:42:06;;;;;;;;;;;;;;;19.72;75.16;101133.09;5082994;28;1588;-42
2021/08/22 07:44:31;;;;;;;;;;;;;;;19.73;74.77;101139.38;5084984;28;1654;-43
2021/08/22 07:46:56;;;;;;;;;;;;;;;19.86;74.54;101141.72;5087577;28;1691;-45
2021/08/22 07:49:21;;;;;;;;;;;;;;;19.70;75.53;101145.09;5073760;28;1697;-45
2021/08/22 07:51:46;;;;;;;;;;;;;;;19.87;74.25;101136.16;5078264;28;1462;-44
2021/08/22 07:54:11;;;;;;;;;;;;;;;19.91;74.16;101144.81;5082992;28;1531;-45
2021/08/22 07:56:37;;;;;;;;;;;;;;;19.94;73.57;101145.34;5086074;28;1917;-44
2021/08/22 07:59:02;;;;;;;;;;;;;;;20.03;73.93;101144.44;5086712;28;1516;-44
2021/08/22 08:01:27;;;;;;;;;;;;;;;20.02;73.70;101141.91;5090066;28;2062;-42
2021/08/22 08:03:52;;;;;;;;;;;;;;;20.01;74.16;101140.19;5080693;28;1720;-42
2021/08/22 08:06:17;;;;;;;;;;;;;;;20.00;74.41;101146.59;5080659;28;1755;-44
2021/08/22 08:08:42;;;;;;;;;;;;;;;19.92;74.32;101147.34;5081966;28;1585;-47
2021/08/22 08:11:07;;;;;;;;;;;;;;;20.03;74.32;101141.75;5080035;28;1850;-47
2021/08/22 08:13:32;;;;;;;;;;;;;;;20.05;73.97;101147.00;5084391;28;1770;-44
2021/08/22 08:15:57;;;;;;;;;;;;;;;20.20;73.80;101148.16;5083663;28;1954;-50
2021/08/22 08:18:22;;;;;;;;;;;;;;;20.10;73.64;101141.97;5074939;28;1671;-45
2021/08/22 08:20:47;;;;;;;;;;;;;;;20.22;73.44;101143.47;5081854;28;1829;-43
2021/08/22 08:23:12;;;;;;;;;;;;;;;20.13;74.00;101140.81;5086083;28;1799;-44
2021/08/22 08:25:38;;;;;;;;;;;;;;;20.08;74.91;101143.97;5080384;28;1876;-47
2021/08/22 08:28:03;;;;;;;;;;;;;;;20.11;74.31;101146.38;5087024;28;2185;-44
2021/08/22 08:30:28;;;;;;;;;;;;;;;20.13;73.71;101138.94;5081958;28;1789;-49
2021/08/22 08:32:53;;;;;;;;;;;;;;;20.15;73.55;101150.47;5096778;28;2520;-48
2021/08/22 08:35:18;;;;;;;;;;;;;;;20.08;73.77;101139.41;5088845;28;1949;-48
2021/08/22 08:37:43;;;;;;;;;;;;;;;20.11;73.52;101149.94;5092674;28;1984;-47
2021/08/22 08:40:08;;;;;;;;;;;;;;;19.90;74.18;101146.66;5079160;28;1860;-43
2021/08/22 08:42:33;;;;;;;;;;;;;;;19.94;74.61;101141.78;5098799;28;2110;-48
2021/08/22 08:44:58;;;;;;;;;;;;;;;19.96;74.74;101153.31;5091671;28;1225;-50
2021/08/22 08:47:24;;;;;;;;;;;;;;;20.02;74.87;101145.44;5078525;28;1600;-48
2021/08/22 08:49:49;;;;;;;;;;;;;;;19.86;74.98;101149.84;5097553;28;1941;-48
2021/08/22 08:52:14;;;;;;;;;;;;;;;19.84;75.45;101158.09;5088202;28;1900;-44
2021/08/22 08:54:39;;;;;;;;;;;;;;;19.94;75.50;101158.88;5095743;28;1996;-49
2021/08/22 08:57:04;;;;;;;;;;;;;;;19.97;75.56;101163.13;5090286;28;2189;-46
2021/08/22 08:59:29;;;;;;;;;;;;;;;19.98;74.75;101154.88;5091587;28;2181;-48
2021/08/22 09:01:57;;;;;;;;;;;;;;;19.94;75.36;101166.13;5098050;28;1836;-47
2021/08/22 09:04:25;;;;;;;;;;;;;;;19.91;75.34;101159.19;5097291;28;1786;-47
2021/08/22 09:06:50;;;;;;;;;;;;;;;19.63;75.79;101157.50;5093496;28;2135;-48
2021/08/22 09:09:15;;;;;;;;;;;;;;;19.58;75.53;101163.34;5077922;28;1960;-45
2021/08/22 09:11:40;;;;;;;;;;;;;;;19.58;75.53;101154.41;5087849;28;1523;-49
2021/08/22 09:14:05;;;;;;;;;;;;;;;19.61;75.31;101160.34;5097779;28;1769;-46
2021/08/22 09:16:30;;;;;;;;;;;;;;;19.71;75.59;101158.44;5097254;28;1894;-45
2021/08/22 09:18:59;;;;;;;;;;;;;;;19.62;75.63;101159.34;5080872;28;1825;-48
2021/08/22 09:21:24;;;;;;;;;;;;;;;19.68;75.01;101160.63;5080658;28;1897;-49
2021/08/22 09:23:49;;;;;;;;;;;;;;;19.81;75.38;101169.22;5091883;28;2057;-50
2021/08/22 09:26:14;;;;;;;;;;;;;;;19.75;75.01;101159.84;5091508;28;1875;-43
2021/08/22 09:28:39;;;;;;;;;;;;;;;19.84;75.31;101160.81;5079332;28;1668;-46
2021/08/22 09:31:04;;;;;;;;;;;;;;;19.82;74.57;101156.56;5082622;28;1744;-47
2021/08/22 09:33:29;;;;;;;;;;;;;;;19.88;74.29;101158.66;5083127;28;1885;-42
2021/08/22 09:35:54;;;;;;;;;;;;;;;19.88;75.15;101162.22;5081942;28;1948;-44
2021/08/22 09:38:19;;;;;;;;;;;;;;;19.94;75.21;101167.00;5086497;28;1784;-47
2021/08/22 09:40:44;;;;;;;;;;;;;;;19.91;74.79;101171.84;5083527;28;1930;-45
2021/08/22 09:43:09;;;;;;;;;;;;;;;19.84;74.31;101173.47;5097306;28;1570;-44
2021/08/22 09:45:34;;;;;;;;;;;;;;;19.81;74.61;101177.34;5097510;28;1906;-44
2021/08/22 09:48:00;;;;;;;;;;;;;;;19.68;75.22;101180.41;5094925;28;1866;-44
2021/08/22 09:50:26;;;;;;;;;;;;;;;19.54;76.46;101175.47;5088113;28;1641;-43
2021/08/22 09:52:51;;;;;;;;;;;;;;;19.48;76.61;101178.75;5086372;28;1711;-43
2021/08/22 09:55:16;;;;;;;;;;;;;;;19.48;76.04;101169.78;5081269;28;1981;-42
2021/08/22 09:57:42;;;;;;;;;;;;;;;19.55;75.62;101168.22;5090837;28;1685;-42
2021/08/22 10:00:07;;;;;;;;;;;;;;;19.69;76.46;101171.28;5085058;28;1844;-43
2021/08/22 10:02:32;;;;;;;;;;;;;;;19.68;76.55;101169.59;5088593;28;1567;-43
2021/08/22 10:04:57;;;;;;;;;;;;;;;19.63;76.32;101171.88;5089519;28;1818;-49
2021/08/22 10:07:22;;;;;;;;;;;;;;;19.69;76.23;101171.28;5078668;28;1444;-46
2021/08/22 10:09:47;;;;;;;;;;;;;;;19.74;77.26;101170.81;5082659;28;1761;-49
2021/08/22 10:12:12;;;;;;;;;;;;;;;19.78;76.79;101180.34;5082993;28;1658;-44
2021/08/22 10:14:38;;;;;;;;;;;;;;;19.77;77.47;101178.63;5094559;28;1643;-45
2021/08/22 10:17:04;;;;;;;;;;;;;;;19.73;77.82;101178.06;5091807;28;1893;-45
2021/08/22 10:19:29;;;;;;;;;;;;;;;19.72;78.10;101164.69;5076408;28;1630;-44
2021/08/22 10:21:54;;;;;;;;;;;;;;;19.72;77.46;101162.84;5081721;28;1646;-41
2021/08/22 10:24:19;;;;;;;;;;;;;;;19.68;76.89;101163.31;5087336;28;1898;-48
2021/08/22 10:26:44;;;;;;;;;;;;;;;19.63;76.45;101171.88;5078830;28;1660;-43
2021/08/22 10:29:09;;;;;;;;;;;;;;;19.62;77.10;101172.03;5093747;28;1636;-46
2021/08/22 10:31:34;;;;;;;;;;;;;;;19.55;75.91;101166.34;5081089;28;1687;-48
2021/08/22 10:33:59;;;;;;;;;;;;;;;19.56;77.02;101178.88;5087489;28;1666;-45
2021/08/22 10:36:24;;;;;;;;;;;;;;;19.59;77.04;101166.91;5081043;28;1949;-47
2021/08/22 10:38:49;;;;;;;;;;;;;;;19.60;77.34;101166.75;5083289;28;1731;-47
2021/08/22 10:41:14;;;;;;;;;;;;;;;19.69;76.96;101170.44;5084633;28;1682;-47
2021/08/22 10:43:40;;;;;;;;;;;;;;;19.71;76.93;101163.00;5088088;28;1669;-45
2021/08/22 10:46:06;;;;;;;;;;;;;;;19.71;76.99;101158.44;5086315;28;1693;-47
2021/08/22 10:48:31;;;;;;;;;;;;;;;19.73;76.60;101161.00;5080594;28;1550;-47
2021/08/22 10:50:56;;;;;;;;;;;;;;;19.72;76.43;101167.41;5083102;28;1734;-46
2021/08/22 10:53:21;;;;;;;;;;;;;;;19.61;77.55;101173.03;5089984;28;1605;-48
2021/08/22 10:55:47;;;;;;;;;;;;;;;19.42;77.08;101174.78;5081894;28;1934;-42
2021/08/22 10:58:12;;;;;;;;;;;;;;;19.35;76.94;101183.63;5091708;28;1742;-43
2021/08/22 11:00:39;;;;;;;;;;;;;;;19.32;77.84;101167.72;5089624;28;1445;-44
2021/08/22 11:03:04;;;;;;;;;;;;;;;19.22;77.29;101170.44;5089995;28;1599;-44
2021/08/22 11:05:29;;;;;;;;;;;;;;;19.18;77.35;101181.69;5095359;28;1842;-44
2021/08/22 11:07:55;;;;;;;;;;;;;;;19.29;77.14;101179.69;5082202;28;1619;-42
2021/08/22 11:10:20;;;;;;;;;;;;;;;19.39;77.56;101180.47;5086910;28;2038;-41
2021/08/22 11:12:45;;;;;;;;;;;;;;;19.36;77.63;101186.19;5092402;28;1678;-45
2021/08/22 11:15:10;;;;;;;;;;;;;;;19.43;77.70;101186.44;5087398;28;1893;-44
2021/08/22 11:17:35;;;;;;;;;;;;;;;19.28;77.68;101194.19;5090842;28;1798;-45
2021/08/22 11:20:00;;;;;;;;;;;;;;;19.40;77.15;101190.28;5085588;28;1848;-46
2021/08/22 11:22:26;;;;;;;;;;;;;;;19.66;77.65;101185.09;5082412;28;1597;-45
2021/08/22 11:24:51;;;;;;;;;;;;;;;19.66;77.93;101182.41;5089553;28;1684;-44
2021/08/22 11:27:16;;;;;;;;;;;;;;;19.72;78.04;101187.19;5088321;28;2008;-49
2021/08/22 11:29:41;;;;;;;;;;;;;;;19.70;77.90;101181.09;5091316;28;1574;-47
2021/08/22 11:32:06;;;;;;;;;;;;;;;19.62;78.48;101186.41;5089156;28;2018;-44
2021/08/22 11:34:31;;;;;;;;;;;;;;;19.61;78.23;101184.69;5091286;28;1741;-43
2021/08/22 11:36:56;;;;;;;;;;;;;;;19.58;78.25;101185.00;5093323;28;1894;-46
2021/08/22 11:39:21;;;;;;;;;;;;;;;19.71;78.53;101180.06;5084537;28;1643;-47
2021/08/22 11:41:46;;;;;;;;;;;;;;;19.76;78.19;101190.44;5092228;28;1849;-45
2021/08/22 11:44:11;;;;;;;;;;;;;;;19.67;78.28;101189.50;5091032;28;1585;-46
2021/08/22 11:46:36;;;;;;;;;;;;;;;19.75;78.33;101196.84;5093581;28;1632;-45
2021/08/22 11:49:01;;;;;;;;;;;;;;;19.76;78.16;101203.97;5086188;28;1554;-45
2021/08/22 11:51:27;;;;;;;;;;;;;;;19.69;77.78;101203.75;5095230;28;1975;-47
2021/08/22 11:53:52;;;;;;;;;;;;;;;19.79;77.19;101202.81;5085205;28;1834;-45
2021/08/22 11:56:17;;;;;;;;;;;;;;;19.74;77.53;101206.81;5073725;28;1910;-46
2021/08/22 11:58:42;;;;;;;;;;;;;;;19.68;77.72;101206.59;5086161;28;1849;-46
2021/08/22 12:01:07;;;;;;;;;;;;;;;19.72;78.09;101210.66;5083109;28;1762;-44
2021/08/22 12:03:32;;;;;;;;;;;;;;;19.66;77.33;101212.16;5094406;28;1881;-48
2021/08/22 12:05:59;;;;;;;;;;;;;;;19.56;77.24;101216.72;5076817;28;1877;-45
2021/08/22 12:08:24;;;;;;;;;;;;;;;19.60;77.24;101210.03;5093177;28;1753;-46
2021/08/22 12:10:50;;;;;;;;;;;;;;;19.66;77.68;101214.84;5094875;28;1657;-47
2021/08/22 12:13:15;;;;;;;;;;;;;;;19.63;77.50;101217.84;5094709;28;1863;-43
2021/08/22 12:15:40;;;;;;;;;;;;;;;19.63;77.02;101214.28;5091330;28;1874;-45
2021/08/22 12:18:05;;;;;;;;;;;;;;;19.56;77.58;101219.44;5086339;28;1565;-45
2021/08/22 12:20:30;;;;;;;;;;;;;;;19.56;77.17;101226.69;5081733;28;1527;-43
2021/08/22 12:22:55;;;;;;;;;;;;;;;19.60;77.80;101225.41;5094378;28;1852;-43
2021/08/22 12:25:20;;;;;;;;;;;;;;;19.75;78.06;101232.88;5085240;28;1905;-48
2021/08/22 12:27:45;;;;;;;;;;;;;;;19.63;78.07;101231.38;5094660;28;1541;-44
2021/08/22 12:30:11;;;;;;;;;;;;;;;19.61;77.90;101227.94;5093070;28;1834;-42
2021/08/22 12:32:39;;;;;;;;;;;;;;;19.73;78.42;101220.50;5093045;28;1480;-42
2021/08/22 12:35:04;;;;;;;;;;;;;;;19.76;78.01;101223.75;5088966;28;1893;-44
2021/08/22 12:37:29;;;;;;;;;;;;;;;19.82;77.35;101224.16;5079824;28;2003;-43